Time;durP1;ratioP1;P1;durP2;ratioP2;P2;SDS_P1;SDS_P2;PMS_P1;PMS_P2;Temp;Humidity;BMP_temperature;BMP_pressure;BME280_temperature;BME280_humidity;BME280_pressure;Samples;Min_cycle;Max_cycle;Signal;HPM_P1;HPM_P2
2022/04/05 00:01:30;;;;;;;8.30;7.32;;;6.60;99.90;;;;;;5033261;28;20597;-61
2022/04/05 00:03:57;;;;;;;9.45;7.57;;;6.60;99.90;;;;;;5033658;28;20245;-62
2022/04/05 00:06:24;;;;;;;8.77;7.30;;;6.60;99.90;;;;;;5033770;28;20199;-61
2022/04/05 00:08:52;;;;;;;6.88;6.00;;;6.60;99.90;;;;;;5033641;28;20209;-62
2022/04/05 00:11:19;;;;;;;7.88;7.05;;;6.60;99.90;;;;;;5033631;28;20616;-61
2022/04/05 00:13:47;;;;;;;7.90;6.45;;;6.60;99.90;;;;;;5047569;28;20231;-61
2022/04/05 00:16:14;;;;;;;9.90;6.85;;;6.60;99.90;;;;;;5048972;28;20210;-61
2022/04/05 00:18:41;;;;;;;7.80;6.80;;;6.60;99.90;;;;;;5049156;28;20201;-61
2022/04/05 00:21:08;;;;;;;7.07;6.30;;;6.60;99.90;;;;;;5045525;28;20220;-61
2022/04/05 00:23:35;;;;;;;8.32;7.40;;;6.60;99.90;;;;;;5039921;28;20211;-61
2022/04/05 00:26:04;;;;;;;7.97;6.50;;;6.50;99.90;;;;;;5052055;28;20207;-62
2022/04/05 00:28:31;;;;;;;7.03;5.82;;;6.60;99.90;;;;;;5052536;28;20203;-61
2022/04/05 00:30:58;;;;;;;7.45;6.75;;;6.50;99.90;;;;;;5052071;28;20235;-61
2022/04/05 00:33:25;;;;;;;7.68;5.80;;;6.50;99.90;;;;;;5051058;28;20203;-60
2022/04/05 00:35:52;;;;;;;6.78;5.82;;;6.60;99.90;;;;;;5051788;28;20216;-62
2022/04/05 00:38:19;;;;;;;7.47;6.28;;;6.50;99.90;;;;;;5052048;28;20209;-61
2022/04/05 00:40:46;;;;;;;8.75;6.63;;;6.50;99.90;;;;;;5044830;28;20227;-61
2022/04/05 00:43:15;;;;;;;7.38;6.20;;;6.50;99.90;;;;;;5039398;28;20204;-62
2022/04/05 00:45:42;;;;;;;6.65;5.05;;;6.50;99.90;;;;;;5038337;28;20225;-61
2022/04/05 00:48:09;;;;;;;7.30;6.60;;;6.50;99.90;;;;;;5037471;28;20682;-61
2022/04/05 00:50:38;;;;;;;6.95;6.22;;;6.50;99.90;;;;;;5037960;28;20227;-61
2022/04/05 00:53:07;;;;;;;7.28;6.18;;;6.50;99.90;;;;;;5041095;28;20203;-60
2022/04/05 00:55:35;;;;;;;6.63;5.85;;;6.40;99.90;;;;;;5041267;28;20216;-61
2022/04/05 00:58:04;;;;;;;6.05;5.22;;;6.40;99.90;;;;;;5041432;28;20213;-61
2022/04/05 01:00:34;;;;;;;6.25;5.65;;;6.40;99.90;;;;;;5042334;28;20230;-60
2022/04/05 01:03:01;;;;;;;5.97;5.28;;;6.40;99.90;;;;;;5039342;28;20208;-61
2022/04/05 01:05:29;;;;;;;4.38;3.97;;;6.30;99.90;;;;;;5038295;28;20200;-60
2022/04/05 01:08:02;;;;;;;5.28;4.22;;;6.30;99.90;;;;;;5039046;28;20684;-60
2022/04/05 01:10:30;;;;;;;6.55;4.10;;;6.30;99.90;;;;;;5038725;28;20229;-60
2022/04/05 01:12:58;;;;;;;6.88;3.50;;;6.30;99.90;;;;;;5038651;28;20239;-60
2022/04/05 01:15:26;;;;;;;3.95;3.42;;;6.20;99.90;;;;;;5038256;28;20235;-60
2022/04/05 01:17:55;;;;;;;3.95;3.40;;;6.20;99.90;;;;;;5038422;28;20215;-60
2022/04/05 01:20:23;;;;;;;3.35;3.05;;;6.20;99.90;;;;;;5038542;28;20230;-60
2022/04/05 01:22:53;;;;;;;3.65;3.30;;;6.20;99.90;;;;;;5039121;28;20214;-61
2022/04/05 01:25:22;;;;;;;4.40;3.53;;;6.20;99.90;;;;;;5038781;28;20192;-60
2022/04/05 01:27:50;;;;;;;3.70;3.30;;;6.20;99.90;;;;;;5039518;28;20207;-60
2022/04/05 01:30:17;;;;;;;4.28;2.90;;;6.20;99.90;;;;;;5037753;28;20339;-61
2022/04/05 01:32:45;;;;;;;3.13;2.88;;;6.20;99.90;;;;;;5036839;28;20207;-61
2022/04/05 01:35:14;;;;;;;3.10;2.80;;;6.10;99.90;;;;;;5036345;28;20220;-61
2022/04/05 01:37:41;;;;;;;6.43;3.35;;;6.10;99.90;;;;;;5036325;28;20205;-61
2022/04/05 01:40:09;;;;;;;4.25;2.67;;;6.10;99.90;;;;;;5037125;28;20203;-62
2022/04/05 01:42:38;;;;;;;2.70;2.30;;;6.10;99.90;;;;;;5036842;28;20200;-61
2022/04/05 01:45:06;;;;;;;3.33;2.53;;;6.10;99.90;;;;;;5037621;28;20201;-61
2022/04/05 01:47:33;;;;;;;3.35;2.85;;;6.00;99.90;;;;;;5037623;28;20544;-61
2022/04/05 01:50:00;;;;;;;3.33;3.03;;;6.00;99.90;;;;;;5037144;28;20210;-61
2022/04/05 01:52:28;;;;;;;2.75;2.53;;;6.00;99.90;;;;;;5038314;28;20203;-60
2022/04/05 01:54:55;;;;;;;2.72;2.10;;;6.00;99.90;;;;;;5036843;28;20226;-61
2022/04/05 01:57:22;;;;;;;2.67;2.13;;;6.00;99.90;;;;;;5037039;28;20207;-61
2022/04/05 01:59:50;;;;;;;3.65;2.60;;;6.00;99.90;;;;;;5036763;28;20211;-60
2022/04/05 02:02:17;;;;;;;2.80;2.60;;;6.00;99.90;;;;;;5036631;28;20214;-61
2022/04/05 02:04:44;;;;;;;3.53;2.10;;;6.00;99.90;;;;;;5036855;28;20199;-61
2022/04/05 02:07:14;;;;;;;2.97;2.20;;;6.00;99.90;;;;;;5036167;28;20204;-60
2022/04/05 02:09:42;;;;;;;2.70;2.30;;;6.00;99.90;;;;;;5036295;28;20207;-61
2022/04/05 02:12:10;;;;;;;2.97;2.75;;;6.10;99.90;;;;;;5036177;28;20247;-61
2022/04/05 02:14:38;;;;;;;2.40;2.20;;;6.10;99.90;;;;;;5035540;28;20215;-61
2022/04/05 02:17:07;;;;;;;2.55;2.35;;;6.10;99.90;;;;;;5035542;28;20204;-60
2022/04/05 02:19:36;;;;;;;6.13;2.25;;;6.10;99.90;;;;;;5035462;28;20210;-61
2022/04/05 02:22:03;;;;;;;3.25;2.50;;;6.10;99.90;;;;;;5035046;28;20706;-61
2022/04/05 02:24:30;;;;;;;4.85;2.10;;;6.20;99.90;;;;;;5035620;28;20208;-61
2022/04/05 02:26:57;;;;;;;2.25;1.98;;;6.10;99.90;;;;;;5035070;28;20207;-61
2022/04/05 02:29:24;;;;;;;2.50;2.30;;;6.10;99.90;;;;;;5035048;28;20203;-60
2022/04/05 02:31:51;;;;;;;2.88;2.58;;;6.10;99.90;;;;;;5035082;28;20239;-61
2022/04/05 02:34:20;;;;;;;3.08;2.53;;;6.20;99.90;;;;;;5034949;28;20215;-62
2022/04/05 02:36:47;;;;;;;2.45;2.25;;;6.20;99.90;;;;;;5035087;28;20211;-60
2022/04/05 02:39:14;;;;;;;3.00;2.25;;;6.20;99.90;;;;;;5035031;28;20211;-60
2022/04/05 02:41:41;;;;;;;2.72;2.47;;;6.20;99.90;;;;;;5034913;28;20223;-61
2022/04/05 02:44:08;;;;;;;2.95;2.65;;;6.20;99.90;;;;;;5035266;28;20203;-62
2022/04/05 02:46:35;;;;;;;3.15;2.38;;;6.20;99.90;;;;;;5035118;28;20227;-60
2022/04/05 02:49:03;;;;;;;3.45;2.50;;;6.20;99.90;;;;;;5033718;28;20208;-61
2022/04/05 02:51:31;;;;;;;4.22;2.63;;;6.20;99.90;;;;;;5034807;28;20234;-61
2022/04/05 02:53:59;;;;;;;2.60;2.40;;;6.20;99.90;;;;;;5035035;28;20318;-60
2022/04/05 02:56:26;;;;;;;2.60;2.35;;;6.20;99.90;;;;;;5034774;28;20270;-61
2022/04/05 02:58:53;;;;;;;3.13;2.78;;;6.20;99.90;;;;;;5034650;28;20700;-60
2022/04/05 03:01:20;;;;;;;3.03;2.63;;;6.30;99.90;;;;;;5034824;28;20315;-60
2022/04/05 03:03:47;;;;;;;2.75;2.55;;;6.20;99.90;;;;;;5035002;28;20218;-60
2022/04/05 03:06:16;;;;;;;5.07;2.40;;;6.20;99.90;;;;;;5034502;28;20211;-60
2022/04/05 03:08:46;;;;;;;5.93;2.80;;;6.20;99.90;;;;;;5034769;28;20234;-61
2022/04/05 03:11:13;;;;;;;4.47;2.40;;;6.20;99.90;;;;;;5034174;28;20224;-60
2022/04/05 03:13:40;;;;;;;2.75;2.55;;;6.30;99.90;;;;;;5034252;28;20676;-60
2022/04/05 03:16:07;;;;;;;2.90;2.70;;;6.30;99.90;;;;;;5034573;28;20292;-60
2022/04/05 03:18:34;;;;;;;2.90;2.22;;;6.30;99.90;;;;;;5034408;28;20211;-60
2022/04/05 03:21:01;;;;;;;3.75;2.58;;;6.30;99.90;;;;;;5034043;28;20234;-60
2022/04/05 03:23:28;;;;;;;4.82;2.30;;;6.30;99.90;;;;;;5041664;28;20297;-61
2022/04/05 03:25:57;;;;;;;4.35;2.08;;;6.30;99.90;;;;;;5034726;28;20201;-61
2022/04/05 03:28:25;;;;;;;3.53;2.90;;;6.30;99.90;;;;;;5034431;28;20204;-60
2022/04/05 03:30:52;;;;;;;2.67;2.47;;;6.30;99.90;;;;;;5034034;28;20733;-61
2022/04/05 03:33:19;;;;;;;3.88;2.53;;;6.30;99.90;;;;;;5033956;28;20200;-60
2022/04/05 03:35:46;;;;;;;4.35;2.80;;;6.30;99.90;;;;;;5033845;28;20252;-59
2022/04/05 03:38:13;;;;;;;2.80;2.60;;;6.30;99.90;;;;;;5034189;28;20277;-61
2022/04/05 03:40:41;;;;;;;3.15;2.60;;;6.30;99.90;;;;;;5033745;28;20227;-61
2022/04/05 03:43:12;;;;;;;2.72;2.53;;;6.30;99.90;;;;;;5033870;28;20205;-60
2022/04/05 03:45:39;;;;;;;5.78;2.80;;;6.30;99.90;;;;;;5034436;28;20180;-60
2022/04/05 03:48:06;;;;;;;3.45;2.35;;;6.30;99.90;;;;;;5034028;28;20210;-61
2022/04/05 03:50:34;;;;;;;2.78;2.55;;;6.30;99.90;;;;;;5033893;28;20221;-58
2022/04/05 03:53:01;;;;;;;2.97;2.47;;;6.30;99.90;;;;;;5034071;28;20211;-60
2022/04/05 03:55:28;;;;;;;4.28;3.10;;;6.20;99.90;;;;;;5033649;28;20244;-61
2022/04/05 03:57:55;;;;;;;3.92;3.00;;;6.20;99.90;;;;;;5033708;28;20205;-60
2022/04/05 04:00:24;;;;;;;5.25;3.45;;;6.20;99.90;;;;;;5033256;28;20236;-61
2022/04/05 04:02:51;;;;;;;3.95;3.00;;;6.20;99.90;;;;;;5033225;28;20214;-60
2022/04/05 04:05:20;;;;;;;4.63;3.22;;;6.20;99.90;;;;;;5034196;28;20234;-60
2022/04/05 04:09:34;;;;;;;6.07;3.13;;;6.30;99.90;;;;;;5091752;27;20880;-60
2022/04/05 04:12:01;;;;;;;4.38;3.22;;;6.30;99.90;;;;;;5091061;28;20229;-61
2022/04/05 04:14:28;;;;;;;5.00;2.95;;;6.30;99.90;;;;;;5091122;28;20201;-61
2022/04/05 04:16:55;;;;;;;4.00;3.53;;;6.30;99.90;;;;;;5090971;28;20202;-59
2022/04/05 04:19:22;;;;;;;4.57;3.13;;;6.40;99.90;;;;;;5091090;28;20236;-61
2022/04/05 04:21:49;;;;;;;5.57;3.15;;;6.40;99.90;;;;;;5090585;28;20226;-60
2022/04/05 04:24:16;;;;;;;4.80;3.80;;;6.40;99.90;;;;;;5090745;28;20209;-61
2022/04/05 04:26:45;;;;;;;6.65;3.38;;;6.40;99.90;;;;;;5090712;28;20202;-60
2022/04/05 04:29:12;;;;;;;4.90;3.60;;;6.40;99.90;;;;;;5090176;28;20225;-59
2022/04/05 04:31:39;;;;;;;4.15;3.20;;;6.40;99.90;;;;;;5090496;28;20223;-61
2022/04/05 04:34:06;;;;;;;9.00;3.95;;;6.50;99.90;;;;;;5090693;28;20204;-61
2022/04/05 04:36:33;;;;;;;5.28;3.53;;;6.50;99.90;;;;;;5090609;28;20304;-59
2022/04/05 04:39:01;;;;;;;3.47;3.17;;;6.50;99.90;;;;;;5090595;28;20201;-61
2022/04/05 04:41:28;;;;;;;4.45;3.50;;;6.60;99.90;;;;;;5090165;28;20737;-60
2022/04/05 04:43:56;;;;;;;5.72;3.90;;;6.60;99.90;;;;;;5089945;28;20290;-61
2022/04/05 04:46:23;;;;;;;7.10;2.90;;;6.60;99.90;;;;;;5089930;28;20202;-61
2022/04/05 04:48:50;;;;;;;4.03;2.85;;;6.60;99.90;;;;;;5089866;28;20218;-60
2022/04/05 04:51:17;;;;;;;10.38;2.60;;;6.50;99.90;;;;;;5090469;28;20226;-61
2022/04/05 04:53:44;;;;;;;7.20;2.85;;;6.50;99.90;;;;;;5090151;28;20208;-60
2022/04/05 04:56:12;;;;;;;5.53;2.60;;;6.40;99.90;;;;;;5090580;28;20213;-61
2022/04/05 04:58:39;;;;;;;4.28;2.20;;;6.40;99.90;;;;;;5089901;28;20203;-59
2022/04/05 05:01:07;;;;;;;3.70;2.50;;;6.30;99.90;;;;;;5090272;28;20240;-61
2022/04/05 05:03:35;;;;;;;3.78;1.95;;;6.30;99.90;;;;;;5089766;28;20653;-59
2022/04/05 05:06:02;;;;;;;5.07;2.67;;;6.20;99.90;;;;;;5090175;28;20205;-60
2022/04/05 05:08:29;;;;;;;5.57;2.80;;;6.20;99.90;;;;;;5089540;28;20222;-60
2022/04/05 05:10:56;;;;;;;4.32;1.90;;;6.20;99.90;;;;;;5089615;28;20217;-60
2022/04/05 05:13:23;;;;;;;4.63;2.47;;;6.20;99.90;;;;;;5089997;28;20231;-59
2022/04/05 05:15:51;;;;;;;4.75;2.55;;;6.20;99.90;;;;;;5089798;28;20210;-60
2022/04/05 05:18:19;;;;;;;6.45;2.25;;;6.20;99.90;;;;;;5089807;28;20199;-60
2022/04/05 05:20:46;;;;;;;5.78;2.60;;;6.20;99.90;;;;;;5076811;28;20248;-60
2022/04/05 05:23:14;;;;;;;7.55;2.88;;;6.20;99.90;;;;;;5076320;28;20293;-59
2022/04/05 05:25:41;;;;;;;5.80;2.53;;;6.20;99.90;;;;;;5076241;28;20198;-59
2022/04/05 05:28:08;;;;;;;9.25;2.28;;;6.20;99.90;;;;;;5076463;28;20253;-60
2022/04/05 05:30:36;;;;;;;4.55;2.38;;;6.20;99.90;;;;;;5076164;28;20747;-60
2022/04/05 05:33:03;;;;;;;10.10;2.67;;;6.30;99.90;;;;;;5076945;28;20201;-60
2022/04/05 05:35:32;;;;;;;7.00;2.30;;;6.30;99.90;;;;;;5091060;28;20232;-60
2022/04/05 05:37:59;;;;;;;4.72;1.95;;;6.30;99.90;;;;;;5092942;28;20203;-60
2022/04/05 05:40:27;;;;;;;5.80;2.53;;;6.20;99.90;;;;;;5092485;28;20261;-60
2022/04/05 05:42:57;;;;;;;8.48;2.17;;;6.30;99.90;;;;;;5093918;28;20212;-60
2022/04/05 05:45:25;;;;;;;2.15;1.67;;;6.20;99.90;;;;;;5094020;28;20193;-60
2022/04/05 05:47:52;;;;;;;6.40;2.30;;;6.30;99.90;;;;;;5093407;28;20237;-61
2022/04/05 05:50:19;;;;;;;6.93;1.92;;;6.30;99.90;;;;;;5091471;28;20223;-59
2022/04/05 05:52:48;;;;;;;8.70;2.55;;;6.30;99.90;;;;;;5085897;28;20567;-60
2022/04/05 05:55:17;;;;;;;6.43;2.58;;;6.30;99.90;;;;;;5086129;28;20243;-60
2022/04/05 05:57:44;;;;;;;5.05;1.90;;;6.30;99.90;;;;;;5085011;28;20209;-59
2022/04/05 06:00:17;;;;;;;4.72;2.13;;;6.30;99.90;;;;;;5078866;28;20226;-60
2022/04/05 06:02:45;;;;;;;9.45;2.20;;;6.30;99.90;;;;;;5078249;28;20187;-61
2022/04/05 06:05:13;;;;;;;4.93;2.00;;;6.30;99.90;;;;;;5079410;28;20224;-61
2022/04/05 06:07:41;;;;;;;6.22;2.40;;;6.30;99.90;;;;;;5082640;28;20206;-59
2022/04/05 06:10:11;;;;;;;7.10;2.30;;;6.30;99.90;;;;;;5076625;28;20202;-59
2022/04/05 06:12:39;;;;;;;12.20;3.70;;;6.40;99.90;;;;;;5076932;28;20198;-59
2022/04/05 06:15:08;;;;;;;8.23;2.53;;;6.30;99.90;;;;;;5077547;28;20572;-60
2022/04/05 06:17:37;;;;;;;5.88;2.25;;;6.40;99.90;;;;;;5070077;28;20211;-60
2022/04/05 06:20:05;;;;;;;6.45;2.50;;;6.40;99.90;;;;;;5074425;28;20206;-60
2022/04/05 06:22:40;;;;;;;6.80;2.60;;;6.40;99.90;;;;;;5078826;28;20208;-59
2022/04/05 06:25:09;;;;;;;7.97;2.70;;;6.40;99.90;;;;;;5082386;28;20201;-60
2022/04/05 06:27:37;;;;;;;7.18;2.38;;;6.50;99.90;;;;;;5081209;28;20206;-61
2022/04/05 06:30:05;;;;;;;8.13;2.58;;;6.50;99.90;;;;;;5080584;28;20221;-61
2022/04/05 06:32:32;;;;;;;6.05;2.42;;;6.60;99.90;;;;;;5076186;28;20207;-60
2022/04/05 06:35:00;;;;;;;5.85;2.70;;;6.60;99.90;;;;;;5075534;28;20202;-60
2022/04/05 06:37:27;;;;;;;6.90;2.28;;;6.70;99.90;;;;;;5077770;28;20203;-60
2022/04/05 06:39:54;;;;;;;5.35;2.42;;;6.70;99.90;;;;;;5079008;22;20235;-53
2022/04/05 06:42:25;;;;;;;16.63;2.97;;;6.70;99.90;;;;;;5034691;28;20212;-53
2022/04/05 06:44:52;;;;;;;9.10;3.00;;;6.80;99.90;;;;;;5035248;28;20183;-52
2022/04/05 06:47:19;;;;;;;6.57;2.58;;;6.80;99.90;;;;;;5033591;28;20207;-55
2022/04/05 06:49:46;;;;;;;9.18;3.10;;;6.90;99.90;;;;;;5034358;28;20235;-54
2022/04/05 06:52:13;;;;;;;7.68;2.60;;;7.00;99.90;;;;;;5033910;28;20673;-52
2022/04/05 06:54:40;;;;;;;10.70;3.45;;;7.00;99.90;;;;;;5033056;28;20212;-55
2022/04/05 06:57:08;;;;;;;6.78;2.67;;;7.00;99.90;;;;;;5034358;28;20212;-54
2022/04/05 06:59:36;;;;;;;6.40;3.35;;;7.10;99.90;;;;;;5034873;28;20225;-56
2022/04/05 07:02:03;;;;;;;3.17;2.00;;;7.10;99.90;;;;;;5035271;28;20204;-55
2022/04/05 07:04:30;;;;;;;7.97;2.85;;;7.20;99.90;;;;;;5032844;28;20231;-54
2022/04/05 07:06:58;;;;;;;9.40;2.67;;;7.20;99.90;;;;;;5034363;28;20238;-53
2022/04/05 07:09:25;;;;;;;11.18;2.83;;;7.20;99.90;;;;;;5035744;28;20693;-54
2022/04/05 07:11:52;;;;;;;10.25;3.08;;;7.20;99.90;;;;;;5029718;28;20668;-54
2022/04/05 07:14:19;;;;;;;6.15;2.38;;;7.30;99.90;;;;;;5015509;28;20201;-53
2022/04/05 07:16:47;;;;;;;6.25;2.28;;;7.30;99.90;;;;;;5015160;28;20201;-53
2022/04/05 07:19:14;;;;;;;6.75;2.45;;;7.30;99.90;;;;;;5014594;28;20560;-53
2022/04/05 07:21:41;;;;;;;8.63;2.10;;;7.40;99.90;;;;;;5013920;28;20222;-53
2022/04/05 07:24:09;;;;;;;7.88;2.25;;;7.40;99.90;;;;;;5014494;28;20682;-53
2022/04/05 07:26:36;;;;;;;5.18;1.90;;;7.50;99.90;;;;;;5014349;28;20682;-52
2022/04/05 07:29:03;;;;;;;4.43;2.03;;;7.60;99.90;;;;;;5014407;28;20245;-53
2022/04/05 07:31:30;;;;;;;4.68;1.67;;;7.70;99.90;;;;;;5014895;28;20207;-53
2022/04/05 07:33:59;;;;;;;4.22;1.90;;;7.80;99.90;;;;;;5012907;28;20210;-52
2022/04/05 07:36:26;;;;;;;9.45;2.38;;;7.90;99.90;;;;;;5013837;28;20270;-55
2022/04/05 07:38:53;;;;;;;9.45;2.40;;;8.00;99.90;;;;;;5013717;28;20201;-54
2022/04/05 07:41:20;;;;;;;5.95;2.55;;;8.00;99.90;;;;;;5012455;28;20211;-54
2022/04/05 07:43:47;;;;;;;4.68;1.80;;;8.20;99.90;;;;;;5012908;28;20284;-54
2022/04/05 07:46:15;;;;;;;4.07;1.80;;;8.20;99.90;;;;;;5012924;28;20205;-53
2022/04/05 07:48:42;;;;;;;4.43;1.70;;;8.30;99.90;;;;;;5011951;28;20249;-54
2022/04/05 07:51:10;;;;;;;5.32;2.22;;;8.20;99.90;;;;;;5013381;28;20574;-55
2022/04/05 07:53:37;;;;;;;4.25;2.10;;;8.20;99.90;;;;;;5013187;28;20218;-54
2022/04/05 07:56:04;;;;;;;5.10;1.98;;;8.20;99.90;;;;;;5012782;28;20207;-52
2022/04/05 07:58:31;;;;;;;4.55;1.70;;;8.20;99.90;;;;;;5014269;28;20206;-54
2022/04/05 08:00:59;;;;;;;11.25;3.50;;;8.20;99.90;;;;;;5014052;28;20229;-53
2022/04/05 08:03:27;;;;;;;6.85;2.55;;;8.10;99.90;;;;;;5014271;28;20306;-54
2022/04/05 08:05:54;;;;;;;9.77;2.67;;;8.10;99.90;;;;;;5013423;28;20662;-54
2022/04/05 08:08:23;;;;;;;7.10;2.38;;;8.10;99.90;;;;;;5013857;28;20209;-53
2022/04/05 08:10:50;;;;;;;9.20;1.90;;;8.10;99.90;;;;;;5013246;28;20600;-53
2022/04/05 08:13:17;;;;;;;4.93;2.25;;;8.20;99.90;;;;;;5012685;28;20202;-53
2022/04/05 08:15:45;;;;;;;9.40;2.70;;;8.20;99.90;;;;;;5013694;28;20207;-53
2022/04/05 08:18:12;;;;;;;7.95;2.63;;;8.30;99.90;;;;;;5013193;28;20676;-53
2022/04/05 08:20:41;;;;;;;9.93;2.85;;;8.30;99.90;;;;;;5012159;28;20228;-54
2022/04/05 08:23:08;;;;;;;7.68;3.05;;;8.20;99.90;;;;;;5012239;28;20204;-54
2022/04/05 08:25:37;;;;;;;6.72;3.05;;;8.10;99.90;;;;;;5013381;28;20208;-55
2022/04/05 08:28:05;;;;;;;6.03;3.05;;;8.10;99.90;;;;;;5014865;28;20207;-54
2022/04/05 08:30:32;;;;;;;9.80;3.90;;;8.10;99.90;;;;;;5013588;28;20233;-56
2022/04/05 08:33:00;;;;;;;9.15;3.80;;;8.10;99.90;;;;;;5013129;28;20221;-53
2022/04/05 08:35:27;;;;;;;6.07;3.00;;;8.10;99.90;;;;;;5013425;28;20578;-53
2022/04/05 08:37:56;;;;;;;5.68;2.65;;;8.10;99.90;;;;;;5012818;28;20209;-52
2022/04/05 08:40:25;;;;;;;10.00;2.50;;;8.20;99.90;;;;;;5012085;28;20229;-52
2022/04/05 08:42:56;;;;;;;12.07;3.00;;;8.30;99.90;;;;;;5011944;28;20217;-52
2022/04/05 08:45:25;;;;;;;7.90;2.28;;;8.40;99.90;;;;;;5012521;28;20554;-54
2022/04/05 08:47:53;;;;;;;7.00;2.17;;;8.50;99.90;;;;;;5012883;28;20202;-53
2022/04/05 08:50:22;;;;;;;12.77;2.85;;;8.60;99.90;;;;;;5013083;28;20230;-53
2022/04/05 08:52:50;;;;;;;9.50;3.45;;;8.80;99.90;;;;;;5012694;28;20204;-53
2022/04/05 08:55:18;;;;;;;5.28;2.22;;;8.90;99.90;;;;;;5014217;28;20204;-53
2022/04/05 08:57:46;;;;;;;6.85;3.75;;;8.90;99.90;;;;;;5016308;28;20205;-53
2022/04/05 09:00:19;;;;;;;6.05;3.20;;;9.00;99.90;;;;;;5016507;28;20223;-52
2022/04/05 09:02:57;;;;;;;6.55;2.72;;;9.10;99.90;;;;;;5015895;28;20194;-52
2022/04/05 09:05:32;;;;;;;6.00;2.50;;;9.00;99.90;;;;;;5016013;28;20208;-52
2022/04/05 09:08:20;;;;;;;6.63;2.47;;;8.90;99.90;;;;;;5016820;28;20220;-53
2022/04/05 09:10:49;;;;;;;7.18;2.22;;;8.80;99.90;;;;;;5015530;28;20229;-52
2022/04/05 09:13:20;;;;;;;8.60;2.55;;;8.80;99.90;;;;;;5015987;28;20660;-53
2022/04/05 09:15:51;;;;;;;7.15;2.40;;;8.70;99.90;;;;;;5016119;28;20202;-54
2022/04/05 09:18:32;;;;;;;4.18;1.60;;;8.70;99.90;;;;;;5016601;28;20198;-54
2022/04/05 09:20:59;;;;;;;12.00;2.80;;;8.70;99.90;;;;;;5015377;28;20225;-53
2022/04/05 09:23:27;;;;;;;8.32;2.78;;;8.70;99.90;;;;;;5016466;28;20206;-54
2022/04/05 09:25:57;;;;;;;4.78;2.03;;;8.60;99.90;;;;;;5016095;28;20200;-54
2022/04/05 09:28:29;;;;;;;14.65;2.70;;;8.60;99.90;;;;;;5015033;28;20741;-52
2022/04/05 09:31:02;;;;;;;5.38;2.38;;;8.70;99.90;;;;;;5016142;28;20230;-54
2022/04/05 09:33:31;;;;;;;7.38;3.10;;;8.90;99.90;;;;;;5015924;28;20195;-54
2022/04/05 09:36:11;;;;;;;7.13;2.40;;;9.10;99.90;;;;;;5015224;28;20214;-55
2022/04/05 09:38:40;;;;;;;9.18;2.50;;;9.30;99.90;;;;;;5015269;28;20204;-54
2022/04/05 09:41:16;;;;;;;8.40;1.85;;;9.40;99.90;;;;;;5015391;28;20197;-55
2022/04/05 09:43:58;;;;;;;4.78;2.35;;;9.40;99.90;;;;;;5014532;28;20194;-55
2022/04/05 09:46:28;;;;;;;6.13;2.83;;;9.30;99.90;;;;;;5015721;28;20200;-54
2022/04/05 09:49:12;;;;;;;6.45;2.38;;;9.20;99.90;;;;;;5014766;28;20200;-54
2022/04/05 09:51:43;;;;;;;5.22;2.28;;;9.20;99.90;;;;;;5014845;28;20575;-53
2022/04/05 09:54:22;;;;;;;8.40;2.60;;;9.30;99.90;;;;;;5013778;28;20235;-54
2022/04/05 09:56:50;;;;;;;5.55;2.88;;;9.20;99.90;;;;;;5014828;28;20210;-54
2022/04/05 09:59:18;;;;;;;5.57;2.72;;;9.10;99.90;;;;;;5014182;28;20770;-55
2022/04/05 10:01:47;;;;;;;6.70;2.78;;;9.10;99.90;;;;;;5013687;28;20734;-55
2022/04/05 10:04:16;;;;;;;5.25;2.75;;;9.00;99.90;;;;;;5014223;28;20205;-56
2022/04/05 10:06:46;;;;;;;5.72;2.55;;;8.90;99.90;;;;;;5014367;28;20208;-55
2022/04/05 10:09:15;;;;;;;6.75;2.90;;;8.80;99.90;;;;;;5014724;28;20266;-54
2022/04/05 10:11:43;;;;;;;11.60;2.67;;;8.80;99.90;;;;;;5015017;28;20200;-55
2022/04/05 10:14:12;;;;;;;8.88;2.47;;;8.90;99.90;;;;;;5014596;28;20676;-55
2022/04/05 10:16:40;;;;;;;6.75;3.20;;;9.10;99.90;;;;;;5013999;28;20202;-55
2022/04/05 10:19:11;;;;;;;5.75;3.45;;;9.00;99.90;;;;;;5014844;28;20226;-55
2022/04/05 10:21:41;;;;;;;5.45;3.05;;;9.00;99.90;;;;;;5013811;28;20201;-55
2022/04/05 10:24:10;;;;;;;4.85;3.22;;;8.90;99.90;;;;;;5015609;28;20204;-54
2022/04/05 10:26:39;;;;;;;5.60;3.67;;;8.90;99.90;;;;;;5014758;28;20222;-54
2022/04/05 10:29:09;;;;;;;8.18;4.20;;;8.70;99.90;;;;;;5013440;28;20242;-54
2022/04/05 10:31:45;;;;;;;5.55;3.60;;;8.60;99.90;;;;;;5014815;28;20201;-55
2022/04/05 10:34:22;;;;;;;11.25;4.45;;;8.40;99.90;;;;;;5014139;28;20196;-54
2022/04/05 10:37:10;;;;;;;8.52;3.90;;;8.30;99.90;;;;;;5013625;28;20197;-55
2022/04/05 10:39:39;;;;;;;7.20;4.32;;;8.30;99.90;;;;;;5014089;28;20228;-54
2022/04/05 10:42:22;;;;;;;6.53;4.35;;;8.20;99.90;;;;;;5014407;28;20614;-53
2022/04/05 10:44:54;;;;;;;7.40;4.55;;;8.10;99.90;;;;;;5013922;28;20195;-54
2022/04/05 10:47:22;;;;;;;9.02;3.90;;;8.20;99.90;;;;;;5014984;28;20198;-54
2022/04/05 10:49:54;;;;;;;9.98;4.53;;;8.20;99.90;;;;;;5014138;28;20256;-55
2022/04/05 10:52:25;;;;;;;11.95;4.75;;;8.10;99.90;;;;;;5013767;28;20194;-54
2022/04/05 10:55:05;;;;;;;8.48;4.80;;;8.10;99.90;;;;;;5014308;28;20229;-55
2022/04/05 10:57:34;;;;;;;7.40;5.30;;;8.00;99.90;;;;;;5014054;28;20194;-54
2022/04/05 11:00:10;;;;;;;7.70;4.20;;;7.90;99.90;;;;;;5012901;28;20265;-54
2022/04/05 11:02:43;;;;;;;12.60;4.93;;;7.90;99.90;;;;;;5013784;28;20517;-54
2022/04/05 11:05:45;;;;;;;8.98;5.03;;;7.90;99.90;;;;;;5014110;28;20213;-54
2022/04/05 11:08:23;;;;;;;9.18;5.13;;;7.90;99.90;;;;;;4958574;28;20620;-55
2022/04/05 11:10:54;;;;;;;8.88;5.60;;;7.90;99.90;;;;;;4971943;28;20676;-54
2022/04/05 11:13:39;;;;;;;9.93;5.85;;;7.90;99.90;;;;;;4988521;28;20670;-54
2022/04/05 11:16:12;;;;;;;12.65;5.55;;;7.90;99.90;;;;;;5011742;28;20209;-53
2022/04/05 11:18:39;;;;;;;8.52;4.88;;;7.90;99.90;;;;;;5013072;28;20184;-54
2022/04/05 11:21:10;;;;;;;11.60;6.47;;;7.90;99.90;;;;;;5013925;28;20227;-55
2022/04/05 11:23:55;;;;;;;9.13;6.30;;;8.00;99.90;;;;;;5013952;28;20193;-55
2022/04/05 11:26:28;;;;;;;7.25;5.70;;;8.10;99.90;;;;;;5026099;28;20204;-53
2022/04/05 11:28:57;;;;;;;10.40;5.43;;;8.10;99.90;;;;;;5033406;28;20189;-54
2022/04/05 11:31:42;;;;;;;9.52;5.75;;;8.30;99.90;;;;;;5033390;28;20252;-54
2022/04/05 11:34:35;;;;;;;7.80;5.13;;;8.40;99.90;;;;;;5032349;28;20200;-52
2022/04/05 11:37:04;;;;;;;7.82;6.03;;;8.40;99.90;;;;;;5033206;28;20213;-54
2022/04/05 11:39:37;;;;;;;6.95;4.95;;;8.50;99.90;;;;;;5032030;28;20237;-54
2022/04/05 11:42:04;;;;;;;8.70;5.15;;;8.60;99.90;;;;;;5034155;28;20187;-53
2022/04/05 11:44:32;;;;;;;6.65;5.78;;;8.60;99.90;;;;;;5033307;28;20672;-54
2022/04/05 11:47:11;;;;;;;8.90;6.43;;;8.60;99.90;;;;;;5033105;28;20202;-54
2022/04/05 11:49:43;;;;;;;8.13;6.05;;;8.50;99.90;;;;;;5033128;28;20225;-54
2022/04/05 11:52:12;;;;;;;10.50;6.55;;;8.40;99.90;;;;;;5032706;28;20205;-54
2022/04/05 11:57:21;;;;;;;7.30;6.10;;;8.40;99.90;;;;;;5032901;28;20197;-54
2022/04/05 11:59:48;;;;;;;11.13;6.38;;;8.40;99.90;;;;;;5033224;28;20590;-54
2022/04/05 12:02:27;;;;;;;9.50;6.88;;;8.40;99.90;;;;;;5032488;28;20201;-55
2022/04/05 12:04:55;;;;;;;10.52;6.40;;;8.40;99.90;;;;;;5032452;28;20209;-55
2022/04/05 12:07:23;;;;;;;6.78;6.07;;;8.30;99.90;;;;;;4993862;28;20244;-54
2022/04/05 12:09:51;;;;;;;10.05;6.97;;;8.30;99.90;;;;;;4993644;28;20732;-54
2022/04/05 12:12:20;;;;;;;5.80;4.82;;;8.40;99.90;;;;;;5002524;28;20201;-54
2022/04/05 12:14:47;;;;;;;6.05;4.20;;;8.50;99.90;;;;;;5013081;28;20231;-55
2022/04/05 12:17:15;;;;;;;4.60;3.70;;;8.60;99.90;;;;;;5013419;28;20203;-55
2022/04/05 12:19:43;;;;;;;7.85;4.88;;;8.60;99.90;;;;;;5013186;28;20230;-54
2022/04/05 12:22:12;;;;;;;5.18;4.30;;;8.60;99.90;;;;;;5013069;28;20260;-54
2022/04/05 12:24:50;;;;;;;5.63;3.97;;;8.70;99.90;;;;;;5012200;28;20230;-53
2022/04/05 12:27:20;;;;;;;8.18;4.55;;;8.70;99.90;;;;;;5012912;28;20246;-53
2022/04/05 12:29:47;;;;;;;5.75;4.75;;;8.80;99.90;;;;;;5014499;28;20286;-53
2022/04/05 12:32:15;;;;;;;5.78;4.55;;;8.80;99.90;;;;;;5017335;28;20558;-53
2022/04/05 12:34:44;;;;;;;3.97;3.55;;;8.90;99.90;;;;;;5016854;28;20216;-53
2022/04/05 12:37:14;;;;;;;3.60;3.10;;;8.90;99.90;;;;;;5016878;28;20225;-53
2022/04/05 12:39:45;;;;;;;6.50;4.15;;;8.80;99.90;;;;;;5017124;28;20265;-52
2022/04/05 12:42:12;;;;;;;4.20;3.75;;;8.70;99.90;;;;;;5017123;28;20191;-53
2022/04/05 12:44:41;;;;;;;4.75;4.32;;;8.60;99.90;;;;;;5017432;28;20201;-52
2022/04/05 12:47:10;;;;;;;9.18;4.15;;;8.60;99.90;;;;;;5016967;28;20210;-54
2022/04/05 12:49:39;;;;;;;4.10;3.38;;;8.60;99.90;;;;;;5016577;28;20229;-53
2022/04/05 12:52:14;;;;;;;5.85;4.40;;;8.60;99.90;;;;;;5016689;28;20226;-52
2022/04/05 12:54:48;;;;;;;4.05;3.65;;;8.70;99.90;;;;;;5017331;28;20199;-54
2022/04/05 12:57:28;;;;;;;5.03;4.35;;;8.70;99.90;;;;;;5017197;28;20203;-54
2022/04/05 13:00:08;;;;;;;5.97;3.95;;;8.70;99.90;;;;;;5016823;28;20316;-53
2022/04/05 13:02:39;;;;;;;5.40;4.43;;;8.80;99.90;;;;;;5016337;28;20197;-53
2022/04/05 13:07:59;;;;;;;4.82;4.43;;;9.40;99.90;;;;;;5016931;28;20187;-53
2022/04/05 13:10:36;;;;;;;6.65;4.82;;;9.60;99.90;;;;;;5016214;28;20224;-54
2022/04/05 13:13:18;;;;;;;5.03;4.43;;;9.70;99.90;;;;;;5016203;28;20200;-54